createdAt,value
2023-01-10T00:00:27.099Z,6.72
2023-01-10T00:01:27.932Z,6.72
2023-01-10T00:02:28.850Z,6.77
2023-01-10T00:03:29.655Z,6.80
2023-01-10T00:04:30.567Z,6.77
2023-01-10T00:05:31.373Z,6.74
2023-01-10T00:06:32.243Z,6.77
2023-01-10T00:07:33.090Z,6.78
2023-01-10T00:08:33.953Z,6.75
2023-01-10T00:09:34.821Z,6.75
2023-01-10T00:10:35.698Z,6.78
2023-01-10T00:11:36.537Z,6.83
2023-01-10T00:12:37.387Z,6.83
2023-01-10T00:13:38.242Z,6.85
2023-01-10T00:14:39.161Z,6.82
2023-01-10T00:15:40.092Z,6.82
2023-01-10T00:16:40.900Z,6.85
2023-01-10T00:17:41.747Z,6.85
2023-01-10T00:18:42.601Z,6.85
2023-01-10T00:19:43.460Z,6.87
2023-01-10T00:20:44.319Z,6.89
2023-01-10T00:21:45.199Z,6.89
2023-01-10T00:22:46.022Z,6.85
2023-01-10T00:23:46.875Z,6.87
2023-01-10T00:24:48.161Z,6.85
2023-01-10T00:25:48.528Z,6.86
2023-01-10T00:26:49.323Z,6.86
2023-01-10T00:27:50.176Z,6.90
2023-01-10T00:28:51.049Z,6.89
2023-01-10T00:29:52.159Z,6.90
2023-01-10T00:30:52.522Z,6.86
2023-01-10T00:31:53.372Z,6.85
2023-01-10T00:32:54.218Z,6.85
2023-01-10T00:33:55.071Z,6.85
2023-01-10T00:34:55.937Z,6.85
2023-01-10T00:35:56.793Z,6.86
2023-01-10T00:36:57.713Z,6.86
2023-01-10T00:37:58.537Z,6.83
2023-01-10T00:38:59.401Z,6.80
2023-01-10T00:40:00.263Z,6.82
2023-01-10T00:41:01.135Z,6.83
2023-01-10T00:42:01.949Z,6.82
2023-01-10T00:43:02.795Z,6.85
2023-01-10T00:44:03.659Z,6.86
2023-01-10T00:45:04.649Z,6.83
2023-01-10T00:46:05.073Z,6.83
2023-01-10T00:47:05.902Z,6.87
2023-01-10T00:48:06.757Z,6.86
2023-01-10T00:49:07.613Z,6.83
2023-01-10T00:50:08.650Z,6.83
2023-01-10T00:51:09.001Z,6.82
2023-01-10T00:52:09.873Z,6.78
2023-01-10T00:53:10.703Z,6.77
2023-01-10T00:54:11.558Z,6.80
2023-01-10T00:55:12.435Z,6.80
2023-01-10T00:56:13.291Z,6.80
2023-01-10T00:57:14.115Z,6.78
2023-01-10T00:58:14.964Z,6.80
2023-01-10T00:59:15.814Z,6.77
2023-01-10T01:00:16.676Z,6.77
2023-01-10T01:01:17.626Z,6.77
2023-01-10T01:02:18.669Z,6.78
2023-01-10T01:03:19.018Z,6.78
2023-01-10T01:04:19.875Z,6.78
2023-01-10T01:05:21.148Z,6.80
2023-01-10T01:06:21.502Z,6.77
2023-01-10T01:07:22.381Z,6.77
2023-01-10T01:08:23.202Z,6.77
2023-01-10T01:09:24.073Z,6.77
2023-01-10T01:10:25.159Z,6.78
2023-01-10T01:11:25.699Z,6.74
2023-01-10T01:12:26.487Z,6.77
2023-01-10T01:13:27.340Z,6.77
2023-01-10T01:14:28.194Z,6.78
2023-01-10T01:15:29.186Z,6.75
2023-01-10T01:16:29.996Z,6.77
2023-01-10T01:17:30.857Z,6.77
2023-01-10T01:18:31.705Z,6.75
2023-01-10T01:19:32.572Z,6.75
2023-01-10T01:20:33.661Z,6.72
2023-01-10T01:21:34.019Z,6.72
2023-01-10T01:22:34.893Z,6.74
2023-01-10T01:23:35.773Z,6.77
2023-01-10T01:24:36.609Z,6.74
2023-01-10T01:25:37.477Z,6.78
2023-01-10T01:26:38.350Z,6.77
2023-01-10T01:27:39.157Z,6.75
2023-01-10T01:28:40.023Z,6.74
2023-01-10T01:29:43.514Z,6.74
2023-01-10T01:30:41.504Z,6.70
2023-01-10T01:31:42.363Z,6.67
2023-01-10T01:32:43.228Z,6.67
2023-01-10T01:33:43.760Z,6.62
2023-01-10T01:34:44.620Z,6.57
2023-01-10T01:35:45.649Z,6.57
2023-01-10T01:36:46.023Z,6.57
2023-01-10T01:37:46.898Z,6.54
2023-01-10T01:38:47.757Z,6.53
2023-01-10T01:39:48.602Z,6.54
2023-01-10T01:40:49.470Z,6.53
2023-01-10T01:41:50.349Z,6.54
2023-01-10T01:42:51.169Z,6.53
2023-01-10T01:43:52.039Z,6.54
2023-01-10T01:44:52.901Z,6.59
2023-01-10T01:45:53.758Z,6.56
2023-01-10T01:46:54.619Z,6.56
2023-01-10T01:47:55.484Z,6.57
2023-01-10T01:48:56.337Z,6.53
2023-01-10T01:49:57.206Z,6.53
2023-01-10T01:50:58.141Z,6.57
2023-01-10T01:51:59.000Z,6.56
2023-01-10T01:52:59.877Z,6.53
2023-01-10T01:54:00.720Z,6.52
2023-01-10T01:55:01.561Z,6.50
2023-01-10T01:56:02.426Z,6.54
2023-01-10T01:57:03.299Z,6.57
2023-01-10T01:58:04.086Z,6.56
2023-01-10T01:59:04.937Z,6.53
2023-01-10T02:00:05.800Z,6.54
2023-01-10T02:01:06.737Z,6.56
2023-01-10T02:02:07.593Z,6.57
2023-01-10T02:03:08.457Z,6.56
2023-01-10T02:04:09.359Z,6.60
2023-01-10T02:05:10.156Z,6.57
2023-01-10T02:06:11.137Z,6.56
2023-01-10T02:07:12.012Z,6.59
2023-01-10T02:08:12.887Z,6.59
2023-01-10T02:09:13.718Z,6.54
2023-01-10T02:10:14.581Z,6.59
2023-01-10T02:11:15.652Z,6.60
2023-01-10T02:12:16.030Z,6.60
2023-01-10T02:13:16.857Z,6.64
2023-01-10T02:14:17.732Z,6.67
2023-01-10T02:15:18.581Z,6.62
2023-01-10T02:16:19.757Z,6.64
2023-01-10T02:17:20.099Z,6.60
2023-01-10T02:18:20.958Z,6.62
2023-01-10T02:19:21.812Z,6.64
2023-01-10T02:20:22.664Z,6.62
2023-01-10T02:21:23.526Z,6.65
2023-01-10T02:22:24.380Z,6.62
2023-01-10T02:23:25.264Z,6.65
2023-01-10T02:24:26.097Z,6.62
2023-01-10T02:25:26.964Z,6.62
2023-01-10T02:26:28.137Z,6.59
2023-01-10T02:27:28.527Z,6.60
2023-01-10T02:28:29.370Z,6.62
2023-01-10T02:29:30.223Z,6.64
2023-01-10T02:30:31.082Z,6.64
2023-01-10T02:31:32.217Z,6.64
2023-01-10T02:32:43.840Z,6.64
2023-01-10T02:33:34.279Z,6.67
2023-01-10T02:34:34.135Z,6.64
2023-01-10T02:35:34.990Z,6.64
2023-01-10T02:36:35.860Z,6.67
2023-01-10T02:37:36.699Z,6.65
2023-01-10T02:38:37.572Z,6.62
2023-01-10T02:39:38.406Z,6.60
2023-01-10T02:40:39.258Z,6.60
2023-01-10T02:41:40.122Z,6.57
2023-01-10T02:42:41.024Z,6.57
2023-01-10T02:43:41.826Z,6.56
2023-01-10T02:44:42.694Z,6.53
2023-01-10T02:45:43.530Z,6.54
2023-01-10T02:46:44.502Z,6.52
2023-01-10T02:47:45.307Z,6.50
2023-01-10T02:48:46.163Z,6.50
2023-01-10T02:49:47.026Z,6.50
2023-01-10T02:50:47.882Z,6.49
2023-01-10T02:51:48.751Z,6.49
2023-01-10T02:52:49.612Z,6.47
2023-01-10T02:53:50.476Z,6.49
2023-01-10T02:54:51.310Z,6.49
2023-01-10T02:55:52.167Z,6.50
2023-01-10T02:56:53.029Z,6.52
2023-01-10T02:57:53.901Z,6.54
2023-01-10T02:58:54.752Z,6.52
2023-01-10T02:59:55.610Z,6.54
2023-01-10T03:00:56.584Z,6.54
2023-01-10T03:01:57.485Z,6.54
2023-01-10T03:02:58.302Z,6.50
2023-01-10T03:03:59.139Z,6.52
2023-01-10T03:05:00.094Z,6.47
2023-01-10T03:06:00.925Z,6.50
2023-01-10T03:07:01.784Z,6.43
2023-01-10T03:08:02.680Z,6.36
2023-01-10T03:09:03.542Z,6.35
2023-01-10T03:10:04.440Z,6.29
2023-01-10T03:11:05.287Z,6.26
2023-01-10T03:12:06.646Z,6.26
2023-01-10T03:13:07.024Z,6.19
2023-01-10T03:14:07.827Z,6.19
2023-01-10T03:15:08.684Z,6.16
2023-01-10T03:16:09.585Z,6.15
2023-01-10T03:17:10.411Z,6.19
2023-01-10T03:18:11.276Z,6.15
2023-01-10T03:19:12.122Z,6.13
2023-01-10T03:20:12.988Z,6.13
2023-01-10T03:21:13.848Z,6.17
2023-01-10T03:22:15.130Z,6.19
2023-01-10T03:23:15.486Z,6.22
2023-01-10T03:24:16.362Z,6.20
2023-01-10T03:25:17.221Z,6.22
2023-01-10T03:26:18.074Z,6.22
2023-01-10T03:27:19.129Z,6.28
2023-01-10T03:28:19.504Z,6.28
2023-01-10T03:29:20.328Z,6.28
2023-01-10T03:30:21.182Z,6.28
2023-01-10T03:31:22.141Z,6.32
2023-01-10T03:32:22.954Z,6.34
2023-01-10T03:33:23.802Z,6.35
2023-01-10T03:34:24.671Z,6.36
2023-01-10T03:35:25.537Z,6.38
2023-01-10T03:36:26.385Z,6.34
2023-01-10T03:37:27.627Z,6.35
2023-01-10T03:38:27.982Z,6.39
2023-01-10T03:39:28.866Z,6.43
2023-01-10T03:40:29.704Z,6.43
2023-01-10T03:41:30.550Z,6.44
2023-01-10T03:42:31.418Z,6.46
2023-01-10T03:43:32.319Z,6.44
2023-01-10T03:44:33.150Z,6.47
2023-01-10T03:45:34.018Z,6.46
2023-01-10T03:46:34.888Z,6.52
2023-01-10T03:47:35.738Z,6.47
2023-01-10T03:48:36.593Z,6.50
2023-01-10T03:49:37.484Z,6.52
2023-01-10T03:50:38.307Z,6.50
2023-01-10T03:51:39.171Z,6.53
2023-01-10T03:52:40.033Z,6.53
2023-01-10T03:53:40.901Z,6.52
2023-01-10T03:54:41.778Z,6.56
2023-01-10T03:55:42.604Z,6.56
2023-01-10T03:56:43.461Z,6.56
2023-01-10T03:57:44.322Z,6.54
2023-01-10T03:58:45.322Z,6.54
2023-01-10T03:59:46.097Z,6.47
2023-01-10T04:00:46.996Z,6.46
2023-01-10T04:01:47.952Z,6.43
2023-01-10T04:02:48.790Z,6.41
2023-01-10T04:03:49.686Z,6.35
2023-01-10T04:04:50.514Z,6.34
2023-01-10T04:05:51.380Z,6.32
2023-01-10T04:06:52.244Z,6.34
2023-01-10T04:07:53.124Z,6.35
2023-01-10T04:08:53.983Z,6.36
2023-01-10T04:09:54.862Z,6.36
2023-01-10T04:10:55.719Z,6.41
2023-01-10T04:11:56.607Z,6.41
2023-01-10T04:12:57.637Z,6.39
2023-01-10T04:13:58.022Z,6.41
2023-01-10T04:14:58.853Z,6.38
2023-01-10T04:15:59.744Z,6.43
2023-01-10T04:17:00.585Z,6.41
2023-01-10T04:18:01.633Z,6.43
2023-01-10T04:19:01.986Z,6.41
2023-01-10T04:20:02.841Z,6.34
2023-01-10T04:21:03.695Z,6.32
2023-01-10T04:22:04.552Z,6.29
2023-01-10T04:23:05.419Z,6.26
2023-01-10T04:24:06.270Z,6.20
2023-01-10T04:25:07.145Z,6.22
2023-01-10T04:26:07.988Z,6.20
2023-01-10T04:27:08.834Z,6.20
2023-01-10T04:28:09.697Z,6.19
2023-01-10T04:29:10.572Z,6.19
2023-01-10T04:30:11.396Z,6.16
2023-01-10T04:31:12.268Z,6.19
2023-01-10T04:32:13.117Z,6.13
2023-01-10T04:33:14.129Z,6.15
2023-01-10T04:34:14.475Z,6.12
2023-01-10T04:35:15.329Z,6.09
2023-01-10T04:36:16.192Z,6.12
2023-01-10T04:37:17.047Z,6.07
2023-01-10T04:38:18.120Z,6.06
2023-01-10T04:39:18.477Z,6.05
2023-01-10T04:40:19.355Z,6.02
2023-01-10T04:41:20.187Z,6.02
2023-01-10T04:42:21.041Z,6.01
2023-01-10T04:43:21.905Z,5.99
2023-01-10T04:44:22.788Z,5.99
2023-01-10T04:45:23.712Z,5.99
2023-01-10T04:46:24.519Z,5.97
2023-01-10T04:47:25.378Z,5.97
2023-01-10T04:48:26.245Z,5.98
2023-01-10T04:49:27.101Z,5.94
2023-01-10T04:50:27.959Z,5.97
2023-01-10T04:51:28.811Z,5.97
2023-01-10T04:52:29.675Z,5.95
2023-01-10T04:53:30.536Z,5.95
2023-01-10T04:54:31.391Z,5.97
2023-01-10T04:55:32.259Z,5.98
2023-01-10T04:56:33.118Z,5.94
2023-01-10T04:57:33.956Z,5.99
2023-01-10T04:58:34.818Z,6.01
2023-01-10T04:59:35.694Z,5.98
2023-01-10T05:00:36.501Z,5.98
2023-01-10T05:01:37.433Z,5.99
2023-01-10T05:02:38.394Z,5.98
2023-01-10T05:03:38.768Z,5.98
2023-01-10T05:04:39.607Z,5.97
2023-01-10T05:05:40.459Z,5.95
2023-01-10T05:06:41.307Z,5.97
2023-01-10T05:07:42.167Z,6.01
2023-01-10T05:08:43.113Z,6.01
2023-01-10T05:09:43.965Z,6.10
2023-01-10T05:10:44.839Z,6.15
2023-01-10T05:11:45.670Z,6.15
2023-01-10T05:12:46.529Z,6.16
2023-01-10T05:13:48.258Z,6.16
2023-01-10T05:14:48.115Z,6.17
2023-01-10T05:15:48.934Z,6.17
2023-01-10T05:16:49.880Z,6.20
2023-01-10T05:17:50.689Z,6.19
2023-01-10T05:18:51.564Z,6.25
2023-01-10T05:19:52.420Z,6.19
2023-01-10T05:20:53.282Z,6.25
2023-01-10T05:21:54.130Z,6.19
2023-01-10T05:22:55.007Z,6.17
2023-01-10T05:23:56.117Z,6.19
2023-01-10T05:24:56.465Z,6.19
2023-01-10T05:25:57.352Z,6.20
2023-01-10T05:26:58.182Z,6.20
2023-01-10T05:27:59.028Z,6.20
2023-01-10T05:28:59.948Z,6.22
2023-01-10T05:30:00.824Z,6.22
2023-01-10T05:31:01.656Z,6.22
2023-01-10T05:32:02.576Z,6.25
2023-01-10T05:33:03.393Z,6.25
2023-01-10T05:34:04.262Z,6.20
2023-01-10T05:35:05.160Z,6.25
2023-01-10T05:36:05.970Z,6.25
2023-01-10T05:37:06.837Z,6.28
2023-01-10T05:38:07.693Z,6.26
2023-01-10T05:39:08.564Z,6.26
2023-01-10T05:40:09.414Z,6.25
2023-01-10T05:41:10.288Z,6.26
2023-01-10T05:42:11.160Z,6.26
2023-01-10T05:43:12.056Z,6.28
2023-01-10T05:44:14.768Z,6.31
2023-01-10T05:45:13.748Z,6.28
2023-01-10T05:46:14.569Z,6.29
2023-01-10T05:47:15.403Z,6.31
2023-01-10T05:48:16.268Z,6.34
2023-01-10T05:49:17.128Z,6.34
2023-01-10T05:50:19.076Z,6.34
2023-01-10T05:51:18.921Z,6.34
2023-01-10T05:52:19.817Z,6.35
2023-01-10T05:53:20.655Z,6.34
2023-01-10T05:54:21.609Z,6.35
2023-01-10T05:55:22.493Z,6.34
2023-01-10T05:56:23.378Z,6.32
2023-01-10T05:57:24.218Z,6.32
2023-01-10T05:58:25.078Z,6.32
2023-01-10T05:59:29.022Z,6.29
2023-01-10T06:00:26.843Z,6.31
2023-01-10T06:01:27.783Z,6.31
2023-01-10T06:02:28.684Z,6.32
2023-01-10T06:03:29.490Z,6.32
2023-01-10T06:04:30.355Z,6.29
2023-01-10T06:05:31.265Z,6.25
2023-01-10T06:06:32.072Z,6.26
2023-01-10T06:07:32.936Z,6.25
2023-01-10T06:08:33.790Z,6.25
2023-01-10T06:09:35.103Z,6.20
2023-01-10T06:10:35.466Z,6.20
2023-01-10T06:11:36.351Z,6.25
2023-01-10T06:12:37.190Z,6.19
2023-01-10T06:13:38.042Z,6.17
2023-01-10T06:14:38.927Z,6.25
2023-01-10T06:15:39.887Z,6.20
2023-01-10T06:16:40.722Z,6.17
2023-01-10T06:17:41.574Z,6.19
2023-01-10T06:18:42.427Z,6.12
2023-01-10T06:19:43.298Z,6.13
2023-01-10T06:20:44.141Z,6.13
2023-01-10T06:21:44.994Z,6.09
2023-01-10T06:22:45.852Z,6.09
2023-01-10T06:23:46.700Z,6.01
2023-01-10T06:24:47.563Z,5.99
2023-01-10T06:25:48.421Z,5.99
2023-01-10T06:26:49.296Z,5.97
2023-01-10T06:27:50.128Z,6.01
2023-01-10T06:28:50.981Z,6.01
2023-01-10T06:29:52.101Z,5.98
2023-01-10T06:30:52.539Z,6.01
2023-01-10T06:31:53.362Z,6.01
2023-01-10T06:32:54.214Z,6.02
2023-01-10T06:33:55.062Z,6.01
2023-01-10T06:34:55.925Z,6.01
2023-01-10T06:35:56.798Z,6.05
2023-01-10T06:36:57.653Z,6.05
2023-01-10T06:37:58.520Z,6.06
2023-01-10T06:38:59.367Z,6.06
2023-01-10T06:40:00.228Z,6.06
2023-01-10T06:41:01.091Z,6.06
2023-01-10T06:42:01.964Z,6.09
2023-01-10T06:43:02.799Z,6.09
2023-01-10T06:44:03.650Z,6.12
2023-01-10T06:45:04.601Z,6.13
2023-01-10T06:46:05.563Z,6.16
2023-01-10T06:47:06.466Z,6.15
2023-01-10T06:48:07.319Z,6.17
2023-01-10T06:49:08.172Z,6.20
2023-01-10T06:50:09.035Z,6.20
2023-01-10T06:51:09.893Z,6.26
2023-01-10T06:52:10.751Z,6.26
2023-01-10T06:53:11.608Z,6.28
2023-01-10T06:54:12.464Z,6.28
2023-01-10T06:55:13.330Z,6.28
2023-01-10T06:56:14.192Z,6.28
2023-01-10T06:57:15.059Z,6.31
2023-01-10T06:58:15.917Z,6.32
2023-01-10T06:59:16.775Z,6.35
2023-01-10T07:00:18.095Z,6.31
2023-01-10T07:01:18.656Z,6.34
2023-01-10T07:02:19.076Z,6.31
2023-01-10T07:03:19.901Z,6.29
2023-01-10T07:04:20.758Z,6.35
2023-01-10T07:05:21.622Z,6.36
2023-01-10T07:06:22.486Z,6.34
2023-01-10T07:07:23.329Z,6.34
2023-01-10T07:08:24.197Z,6.31
2023-01-10T07:09:25.054Z,6.29
2023-01-10T07:10:25.932Z,6.29
2023-01-10T07:11:26.778Z,6.31
2023-01-10T07:12:27.646Z,6.34
2023-01-10T07:13:28.481Z,6.34
2023-01-10T07:14:29.354Z,6.39
2023-01-10T07:15:30.621Z,6.36
2023-01-10T07:16:31.040Z,6.36
2023-01-10T07:17:31.876Z,6.36
2023-01-10T07:18:32.754Z,6.41
2023-01-10T07:19:33.603Z,6.41
2023-01-10T07:20:34.604Z,6.38
2023-01-10T07:21:35.467Z,6.39
2023-01-10T07:22:36.319Z,6.43
2023-01-10T07:23:37.196Z,6.49
2023-01-10T07:24:38.063Z,6.44
2023-01-10T07:25:39.093Z,6.44
2023-01-10T07:26:39.451Z,6.41
2023-01-10T07:27:40.321Z,6.43
2023-01-10T07:28:41.157Z,6.44
2023-01-10T07:29:42.007Z,6.44
2023-01-10T07:30:43.095Z,6.41
2023-01-10T07:31:43.467Z,6.47
2023-01-10T07:32:44.281Z,6.43
2023-01-10T07:33:45.168Z,6.41
2023-01-10T07:34:46.014Z,6.39
2023-01-10T07:35:46.881Z,6.39
2023-01-10T07:36:47.735Z,6.38
2023-01-10T07:37:48.589Z,6.43
2023-01-10T07:38:49.443Z,6.38
2023-01-10T07:39:50.297Z,6.39
2023-01-10T07:40:51.167Z,6.43
2023-01-10T07:41:52.019Z,6.39
2023-01-10T07:42:52.893Z,6.39
2023-01-10T07:43:53.767Z,6.43
2023-01-10T07:44:54.621Z,6.43
2023-01-10T07:45:55.610Z,6.44
2023-01-10T07:46:56.475Z,6.49
2023-01-10T07:47:57.313Z,6.50
2023-01-10T07:48:58.188Z,6.50
2023-01-10T07:49:59.020Z,6.50
2023-01-10T07:50:59.919Z,6.50
2023-01-10T07:52:00.755Z,6.49
2023-01-10T07:53:01.657Z,6.49
2023-01-10T07:54:02.502Z,6.49
2023-01-10T07:55:03.339Z,6.50
2023-01-10T07:56:04.597Z,6.52
2023-01-10T07:57:04.950Z,6.47
2023-01-10T07:58:05.836Z,6.49
2023-01-10T07:59:06.674Z,6.49
2023-01-10T08:00:07.536Z,6.47
2023-01-10T08:01:08.523Z,6.49
2023-01-10T08:02:09.357Z,6.49
2023-01-10T08:03:10.340Z,6.52
2023-01-10T08:04:10.737Z,6.50
2023-01-10T08:05:11.588Z,6.53
2023-01-10T08:06:13.797Z,6.54
2023-01-10T08:07:13.067Z,6.53
2023-01-10T08:08:13.913Z,6.53
2023-01-10T08:09:14.778Z,6.53
2023-01-10T08:10:15.641Z,6.49
2023-01-10T08:11:16.590Z,6.49
2023-01-10T08:12:17.452Z,6.54
2023-01-10T08:13:19.411Z,6.50
2023-01-10T08:14:18.876Z,6.54
2023-01-10T08:15:19.663Z,6.57
2023-01-10T08:16:20.723Z,6.56
2023-01-10T08:17:21.138Z,6.60
2023-01-10T08:18:21.921Z,6.60
2023-01-10T08:19:22.780Z,6.57
2023-01-10T08:20:23.662Z,6.56
2023-01-10T08:21:24.525Z,6.57
2023-01-10T08:22:25.381Z,6.56
2023-01-10T08:23:26.279Z,6.59
2023-01-10T08:24:27.137Z,6.65
2023-01-10T08:25:28.094Z,6.62
2023-01-10T08:26:29.094Z,6.57
2023-01-10T08:27:29.456Z,6.59
2023-01-10T08:28:30.357Z,6.56
2023-01-10T08:29:31.200Z,6.56
2023-01-10T08:30:32.053Z,6.57
2023-01-10T08:31:32.933Z,6.54
2023-01-10T08:32:33.793Z,6.57
2023-01-10T08:33:34.629Z,6.60
2023-01-10T08:34:35.494Z,6.62
2023-01-10T08:35:36.354Z,6.60
2023-01-10T08:36:37.585Z,6.65
2023-01-10T08:37:37.942Z,6.64
2023-01-10T08:38:38.818Z,6.64
2023-01-10T08:39:39.675Z,6.59
2023-01-10T08:40:40.538Z,6.54
2023-01-10T08:41:41.401Z,6.54
2023-01-10T08:42:42.261Z,6.53
2023-01-10T08:43:43.155Z,6.57
2023-01-10T08:44:43.980Z,6.59
2023-01-10T08:45:44.850Z,6.67
2023-01-10T08:46:45.736Z,6.65
2023-01-10T08:47:46.106Z,6.57
2023-01-10T08:48:46.935Z,6.60
2023-01-10T08:49:47.787Z,6.68
2023-01-10T08:50:48.732Z,6.62
2023-01-10T08:51:50.082Z,6.60
2023-01-10T08:52:50.454Z,6.65
2023-01-10T08:53:51.307Z,6.65
2023-01-10T08:54:52.160Z,6.64
2023-01-10T08:55:53.023Z,6.64
2023-01-10T08:56:54.085Z,6.70
2023-01-10T08:57:54.441Z,6.72
2023-01-10T08:58:55.326Z,6.68
2023-01-10T08:59:56.158Z,6.68
2023-01-10T09:00:57.076Z,6.64
2023-01-10T09:01:58.173Z,6.67
2023-01-10T09:02:58.713Z,6.67
2023-01-10T09:03:59.076Z,6.65
2023-01-10T09:04:59.927Z,6.64
2023-01-10T09:06:00.798Z,6.72
2023-01-10T09:07:01.646Z,6.75
2023-01-10T09:08:02.533Z,6.72
2023-01-10T09:09:03.377Z,6.77
2023-01-10T09:10:04.233Z,6.82
2023-01-10T09:11:05.099Z,6.82
2023-01-10T09:12:06.089Z,6.89
2023-01-10T09:13:06.943Z,6.93
2023-01-10T09:14:07.843Z,6.95
2023-01-10T09:15:08.696Z,6.90
2023-01-10T09:16:09.609Z,6.87
2023-01-10T09:17:10.429Z,6.85
2023-01-10T09:18:11.317Z,6.87
2023-01-10T09:19:12.140Z,7.00
2023-01-10T09:20:12.992Z,7.03
2023-01-10T09:21:13.844Z,7.03
2023-01-10T09:22:15.079Z,6.97
2023-01-10T09:23:15.435Z,6.92
2023-01-10T09:24:16.306Z,6.93
2023-01-10T09:25:17.155Z,7.01
2023-01-10T09:26:18.024Z,7.00
2023-01-10T09:27:19.088Z,6.95
2023-01-10T09:28:19.459Z,6.97
2023-01-10T09:29:20.317Z,6.96
2023-01-10T09:30:21.163Z,6.87
2023-01-10T09:31:22.105Z,6.86
2023-01-10T09:32:23.079Z,6.85
2023-01-10T09:33:23.454Z,6.80
2023-01-10T09:34:24.253Z,6.80
2023-01-10T09:35:25.136Z,6.85
2023-01-10T09:36:25.974Z,6.90
2023-01-10T09:37:27.079Z,6.85
2023-01-10T09:38:27.452Z,6.87
2023-01-10T09:39:28.305Z,6.89
2023-01-10T09:40:29.165Z,6.90
2023-01-10T09:41:30.033Z,6.93
2023-01-10T09:42:30.890Z,6.97
2023-01-10T09:43:31.757Z,6.97
2023-01-10T09:44:32.631Z,7.03
2023-01-10T09:45:33.478Z,7.04
2023-01-10T09:46:34.409Z,7.04
2023-01-10T09:47:35.577Z,6.97
2023-01-10T09:48:35.953Z,6.90
2023-01-10T09:49:36.792Z,6.90
2023-01-10T09:50:37.647Z,6.90
2023-01-10T09:51:38.512Z,6.90
2023-01-10T09:52:39.581Z,6.90
2023-01-10T09:53:39.946Z,6.92
2023-01-10T09:54:40.805Z,6.93
2023-01-10T09:55:41.666Z,6.96
2023-01-10T09:56:42.521Z,7.01
2023-01-10T09:57:43.575Z,7.13
2023-01-10T09:58:43.929Z,7.19
2023-01-10T09:59:44.809Z,7.23
2023-01-10T10:00:45.647Z,7.23
2023-01-10T10:01:46.507Z,7.22
2023-01-10T10:02:47.576Z,7.14
2023-01-10T10:03:48.066Z,7.21
2023-01-10T10:04:48.907Z,7.26
2023-01-10T10:05:50.572Z,7.40
2023-01-10T10:06:50.737Z,7.50
2023-01-10T10:07:52.073Z,7.59
2023-01-10T10:08:52.433Z,7.58
2023-01-10T10:09:53.304Z,7.62
2023-01-10T10:10:54.153Z,7.72
2023-01-10T10:11:55.033Z,7.56
2023-01-10T10:12:56.074Z,7.47
2023-01-10T10:13:56.439Z,7.33
2023-01-10T10:14:57.344Z,7.33
2023-01-10T10:15:59.919Z,7.46
2023-01-10T10:16:58.877Z,7.59
2023-01-10T10:18:00.097Z,7.78
2023-01-10T10:19:00.475Z,7.91
2023-01-10T10:20:01.267Z,8.59
2023-01-10T10:21:02.113Z,9.54
2023-01-10T10:22:02.955Z,10.10
2023-01-10T10:23:03.822Z,10.84
2023-01-10T10:24:04.673Z,11.38
2023-01-10T10:25:05.538Z,11.65
2023-01-10T10:26:06.391Z,11.43
2023-01-10T10:27:07.249Z,11.38
2023-01-10T10:28:08.574Z,11.16
2023-01-10T10:29:08.983Z,11.02
2023-01-10T10:30:09.859Z,10.65
2023-01-10T10:31:10.733Z,11.02
2023-01-10T10:32:11.554Z,10.95
2023-01-10T10:33:12.416Z,10.80
2023-01-10T10:34:13.288Z,10.87
2023-01-10T10:35:14.068Z,11.08
2023-01-10T10:36:14.923Z,11.13
2023-01-10T10:37:15.832Z,10.89
2023-01-10T10:38:16.679Z,10.87
2023-01-10T10:39:17.536Z,11.10
2023-01-10T10:40:18.420Z,11.02
2023-01-10T10:41:19.283Z,11.45
2023-01-10T10:42:20.138Z,11.74
2023-01-10T10:43:21.084Z,11.78
2023-01-10T10:44:21.933Z,12.17
2023-01-10T10:45:25.249Z,12.11
2023-01-10T10:46:23.777Z,12.14
2023-01-10T10:47:24.620Z,11.53
2023-01-10T10:48:25.574Z,11.00
2023-01-10T10:49:26.455Z,10.72
2023-01-10T10:50:27.271Z,11.19
2023-01-10T10:51:28.121Z,11.53
2023-01-10T10:52:28.974Z,11.78
2023-01-10T10:53:29.851Z,11.85
2023-01-10T10:54:30.699Z,11.81
2023-01-10T10:55:31.559Z,11.30
2023-01-10T10:56:32.409Z,11.00
2023-01-10T10:57:33.268Z,11.15
2023-01-10T10:58:34.181Z,10.82
2023-01-10T10:59:35.058Z,10.51
2023-01-10T11:00:36.015Z,10.41
2023-01-10T11:01:37.042Z,10.41
2023-01-10T11:02:37.436Z,10.39
2023-01-10T11:03:38.572Z,10.21
2023-01-10T11:04:39.018Z,9.80
2023-01-10T11:05:39.811Z,10.07
2023-01-10T11:06:40.671Z,9.64
2023-01-10T11:07:41.516Z,9.27
2023-01-10T11:08:42.389Z,9.48
2023-01-10T11:09:43.236Z,9.80
2023-01-10T11:10:44.083Z,9.73
2023-01-10T11:11:44.937Z,9.70
2023-01-10T11:12:45.793Z,9.59
2023-01-10T11:13:47.071Z,9.33
2023-01-10T11:14:47.436Z,9.56
2023-01-10T11:15:48.321Z,9.74
2023-01-10T11:16:49.199Z,9.95
2023-01-10T11:17:50.004Z,10.10
2023-01-10T11:18:51.097Z,9.85
2023-01-10T11:19:51.747Z,9.84
2023-01-10T11:20:52.059Z,9.91
2023-01-10T11:21:52.912Z,9.55
2023-01-10T11:22:53.782Z,9.39
2023-01-10T11:23:54.633Z,9.51
2023-01-10T11:24:55.496Z,9.72
2023-01-10T11:25:56.342Z,9.56
2023-01-10T11:26:57.201Z,9.42
2023-01-10T11:27:58.054Z,9.33
2023-01-10T11:28:59.074Z,9.26
2023-01-10T11:29:59.481Z,9.24
2023-01-10T11:31:00.367Z,9.03
2023-01-10T11:32:01.215Z,9.05
2023-01-10T11:33:02.060Z,9.03
2023-01-10T11:34:03.699Z,9.03
2023-01-10T11:35:03.566Z,9.08
2023-01-10T11:36:04.423Z,9.16
2023-01-10T11:37:05.264Z,8.97
2023-01-10T11:38:06.124Z,8.89
2023-01-10T11:39:07.073Z,8.78
2023-01-10T11:40:07.944Z,8.72
2023-01-10T11:41:08.799Z,8.86
2023-01-10T11:42:09.662Z,8.82
2023-01-10T11:43:10.522Z,8.78
2023-01-10T11:44:11.382Z,8.78
2023-01-10T11:45:12.245Z,8.79
2023-01-10T11:46:13.217Z,8.68
2023-01-10T11:47:14.023Z,8.75
2023-01-10T11:48:14.893Z,8.81
2023-01-10T11:49:15.755Z,8.87
2023-01-10T11:50:16.644Z,8.90
2023-01-10T11:51:17.428Z,8.87
2023-01-10T11:52:18.308Z,8.79
2023-01-10T11:53:19.174Z,8.72
2023-01-10T11:54:20.077Z,8.66
2023-01-10T11:55:20.949Z,8.74
2023-01-10T11:56:21.818Z,8.79
2023-01-10T11:57:22.689Z,8.92
2023-01-10T11:58:23.534Z,8.95
2023-01-10T11:59:24.460Z,8.81
2023-01-10T12:00:25.251Z,8.69
2023-01-10T12:01:26.209Z,8.68
2023-01-10T12:02:27.081Z,8.71
2023-01-10T12:03:27.911Z,8.68
2023-01-10T12:04:28.777Z,8.56
2023-01-10T12:05:29.702Z,8.52
2023-01-10T12:06:30.510Z,8.56
2023-01-10T12:07:31.363Z,8.61
2023-01-10T12:08:32.226Z,8.60
2023-01-10T12:09:33.576Z,8.68
2023-01-10T12:10:33.936Z,8.68
2023-01-10T12:11:34.793Z,8.68
2023-01-10T12:12:35.758Z,8.61
2023-01-10T12:13:36.579Z,8.52
2023-01-10T12:14:37.439Z,8.59
2023-01-10T12:15:38.309Z,8.59
2023-01-10T12:16:39.236Z,8.54
2023-01-10T12:17:40.042Z,8.56
2023-01-10T12:18:40.895Z,8.56
2023-01-10T12:19:42.091Z,8.57
2023-01-10T12:20:42.529Z,8.59
2023-01-10T12:21:43.325Z,8.59
2023-01-10T12:22:44.190Z,8.60
2023-01-10T12:23:45.041Z,8.46
2023-01-10T12:24:47.076Z,8.49
2023-01-10T12:25:46.434Z,8.50
2023-01-10T12:26:47.346Z,8.49
2023-01-10T12:27:48.176Z,8.54
2023-01-10T12:28:49.031Z,8.57
2023-01-10T12:29:50.069Z,8.57
2023-01-10T12:30:50.530Z,8.52
2023-01-10T12:31:51.354Z,8.50
2023-01-10T12:32:52.187Z,8.56
2023-01-10T12:33:53.049Z,8.60
2023-01-10T12:34:53.905Z,8.60
2023-01-10T12:35:54.818Z,8.53
2023-01-10T12:36:55.686Z,8.53
2023-01-10T12:37:56.473Z,8.63
2023-01-10T12:38:57.329Z,8.56
2023-01-10T12:39:58.225Z,8.57
2023-01-10T12:40:59.137Z,8.57
2023-01-10T12:41:59.965Z,8.59
2023-01-10T12:43:00.832Z,8.60
2023-01-10T12:44:01.689Z,8.57
2023-01-10T12:45:03.072Z,8.50
2023-01-10T12:46:12.821Z,8.50
2023-01-10T12:47:08.366Z,8.61
2023-01-10T12:48:05.932Z,8.63
2023-01-10T12:49:05.776Z,8.63
2023-01-10T12:50:07.080Z,8.59
2023-01-10T12:51:07.491Z,8.64
2023-01-10T12:52:08.278Z,8.68
2023-01-10T12:53:09.148Z,8.71
2023-01-10T12:54:10.025Z,8.66
2023-01-10T12:55:10.876Z,8.60
2023-01-10T12:56:11.747Z,8.66
2023-01-10T12:57:12.678Z,8.72
2023-01-10T12:58:13.597Z,8.74
2023-01-10T12:59:15.132Z,8.79
2023-01-10T13:00:15.675Z,8.87
2023-01-10T13:01:15.709Z,8.89
2023-01-10T13:02:16.206Z,8.90
2023-01-10T13:03:16.614Z,8.93
2023-01-10T13:04:17.442Z,8.97
2023-01-10T13:05:19.153Z,8.90
2023-01-10T13:06:18.989Z,8.93
2023-01-10T13:07:19.957Z,8.92
2023-01-10T13:08:20.796Z,9.03
2023-01-10T13:09:21.897Z,9.12
2023-01-10T13:10:22.568Z,9.16
2023-01-10T13:11:22.989Z,9.09
2023-01-10T13:12:23.803Z,9.05
2023-01-10T13:13:24.748Z,9.08
2023-01-10T13:14:25.641Z,9.05
2023-01-10T13:15:26.683Z,9.12
2023-01-10T13:16:27.131Z,9.11
2023-01-10T13:17:28.062Z,9.12
2023-01-10T13:18:28.942Z,9.15
2023-01-10T13:19:29.757Z,9.12
2023-01-10T13:20:31.148Z,9.00
2023-01-10T13:21:32.125Z,8.92
2023-01-10T13:22:32.459Z,8.90
2023-01-10T13:23:33.396Z,8.95
2023-01-10T13:24:34.284Z,8.93
2023-01-10T13:25:35.616Z,8.95
2023-01-10T13:26:35.977Z,8.93
2023-01-10T13:27:36.818Z,8.86
2023-01-10T13:28:37.675Z,8.90